Bettendorf, IA (52722)

5:36 PM CST on February 26, 2017 (GMT -0600)
Central Bettendorf | | Change Station
Active Advisory: Flood Watch Active Notice: Flood Watch

Elev 665 ft 41.53 °N, 90.50 °W | Updated 9 seconds ago

Partly Cloudy
Partly Cloudy
45.3 °F
Feels Like 41 °F
N
8.7
Wind Variable Wind from WSW
Gusts 9.4 mph

Today
High -- | Low -- °F
--% Chance of Precip.
Yesterday
High -- | Low -- °F
Precip. -- in
Pressure 29.95 in
Visibility 10.0 miles
Clouds Few 4100 ft
Overcast 7500 ft
Windchill 41 °F
Dew Point 9 °F
Humidity 22%
Rainfall 0.00 in
Snow Depth Not available.
6:40 AM 5:49 PM
New Moon, 0% visible
METAR KMLI 262252Z 25010KT 10SM FEW041 OVC075 08/M02 A2994 RMK AO2 PK WND 23030/2158 RAB02E10 SLP142 P0000 T00831022
Pressure 29.95 in
Visibility 10.0 miles
Clouds Few 4100 ft
Overcast 7500 ft
Windchill 41 °F
Dew Point 9 °F
Humidity 22%
Rainfall 0.00 in
Snow Depth Not available.
6:40 AM 5:49 PM
New Moon, 0% visible
METAR KMLI 262252Z 25010KT 10SM FEW041 OVC075 08/M02 A2994 RMK AO2 PK WND 23030/2158 RAB02E10 SLP142 P0000 T00831022

Get Your Daily Forecast Email!

Thanks for signing up!

Be on the lookout for a verification email in your inbox.

You'll start receiving the daily forecast at 8 AM.

×

10-Day Weather Forecast

Almanac

Astronomy

Feb. 26, 2017 Rise Set
Actual Time
Civil Twilight
Nautical Twilight
Astronomical Twilight
Moon
Length of Visible Light
Length of Day
Tomorrow will be .
, % of the Moon is Illuminated

Today's Extremes

State Highs State Lows

Community

WunderPhotos

Upload Photos

1,962,540 photos uploaded!

WunderBlog® & News

Nearby

Air Quality

  Air Quality AQ Index Pollutant
Not available.

Snow Depth

Station Depth Elevation

Earthquake Activity

City Distance Mag. Time & Date
Minimum magnitude displayed is 2.5.

Coastal Water Temperatures

Place Temperature

Stations

Nearby Weather Stations

Station Location Temp. Windchill Dew Point Humidity Wind Precip. Elev Updated Type
                   

Watches & Warnings

Flood Watch
Issued: 11:59 AM CST Feb. 26, 2017 – National Weather Service

The National Weather Service in Quad Cities has issued a
* Flood Watch for
the Mississippi River at Rock Island ld15
* until further notice.
* At 10:00 am Sunday the stage was 11.3 feet.
* Flood stage is 15.0 feet.
* Minor flooding is possible.
* Forecast... rise to flood stage Sunday morning March 5th.
* This forecast is based on routed flow from upstream in combination
with some snow melt. This forecast does not account for predicted
rainfall later this week which will influence future river levels.



Lat... Lon 4146 9086 4141 9085 4143 9066 4152 9043
      4156 9046